• Join FlightAware (Why Join?)
  • Login
  • US Flag 
04:39AM EDT


 

Airport Tracker/Info


-or-


 

Live Flight TrackerFlight Track Log ✈ DAL104 ✈ 06-May-2012 ✈ KATL - KMCO

Flight Track Log - Related Links

Times and Time Zones

All times are in EDT time to prevent confusion due to time zone crossing. See the DAL104 flight status page for this flight to view local times or setup timezone preferences in your user account.

Time Position Orientation Groundspeed Altitude Reporting Facility
EDT Latitude Longitude Course Direction KTS MPH feet Rate Location/Type
09:21AM 33.6114 -84.5850 155° Southeast 307 353 6,200  Level Atlanta Center
09:45AM 30.9325 -83.1081 149° Southeast 487 560 31,200 840 Climbing Jacksonville Center
09:46AM 30.8072 -83.0208 150° Southeast 487 560 27,800 -2,160 Descending Jacksonville Center
09:47AM 30.6967 -82.9481 150° Southeast 496 571 26,900 -420 Descending Jacksonville Center
09:48AM 30.5797 -82.8683 149° Southeast 501 577 27,000 -300 Climbing Jacksonville Center
09:49AM 30.4544 -82.7794 149° Southeast 496 571 26,400 -840 Descending Jacksonville Center
09:50AM 30.3394 -82.7000 150° Southeast 489 563 25,400 -720 Descending Jacksonville Center
09:51AM 30.2308 -82.6281 150° Southeast 489 563 25,000 -240 Descending Jacksonville Center
09:52AM 30.1178 -82.5539 149° Southeast 489 563 25,000  Level Jacksonville Center
09:53AM 30.0047 -82.4753 155° Southeast 489 563 25,000  Level Jacksonville Center
09:54AM 29.8856 -82.4111 157° South 479 551 25,000  Level Jacksonville Center
09:55AM 29.7622 -82.3519 157° South 479 551 25,000 -180 Level Jacksonville Center
09:56AM 29.6389 -82.2928 158° South 479 551 24,700 -1,320 Descending Jacksonville Center
09:57AM 29.5194 -82.2361 157° South 474 545 22,400 -2,340 Descending Jacksonville Center
09:58AM 29.4044 -82.1797 158° South 467 537 20,100 -2,280 Descending Jacksonville Center
09:59AM 29.2978 -82.1306 156° South 443 510 17,900 -2,280 Descending Jacksonville Center
10:00AM 29.1950 -82.0792 158° South 421 484 15,600 -2,220 Descending Jacksonville Center
10:01AM 29.0944 -82.0322 158° South 408 470 13,500 -2,040 Descending Jacksonville Center
10:02AM 28.9983 -81.9881 158° South 387 445 11,600 -1,260 Descending Jacksonville Center
10:03AM 28.9039 -81.9439 130° Southeast 360 414 11,000 -600 Descending Jacksonville Center
10:04AM 28.8511 -81.8708 125° Southeast 308 354 10,400 -1,020 Descending Jacksonville Center
10:05AM 28.8047 -81.7956 104° East 295 339 9,000 -660 Descending Jacksonville Center
10:06AM 28.7833 -81.7000 115° Southeast 286 329 9,000 -180 Level Orlando TRACON
10:07AM 28.7500 -81.6167 103° East 259 298 8,700 -960 Descending Orlando TRACON
10:08AM 28.7333 -81.5333 103° East 257 296 7,100 -1,380 Descending Orlando TRACON
10:09AM 28.7167 -81.4500 106° East 273 314 6,000 -660 Descending Orlando TRACON
10:10AM 28.7000 -81.3833 139° Southeast 248 285 5,800 -600 Descending Orlando TRACON
10:11AM 28.6500 -81.3333 168° South 223 257 4,800 -1,080 Descending Orlando TRACON
10:12AM 28.5833 -81.3167 180° South 214 246 3,700 -1,260 Descending Orlando TRACON
10:13AM 28.5333 -81.3167 180° South 190 219 2,300 -1,380 Descending Orlando TRACON
10:14AM 28.4833 -81.3167 168° South 160 184 1,000 -1,320 Descending Orlando TRACON
10:21AM 28.4167 -81.3000 328° Northwest  Level FlightAware Approximate
10:22AM 28.5057 -81.3630 328° Northwest  Level Estimated